Time;durP1;ratioP1;P1;durP2;ratioP2;P2;SDS_P1;SDS_P2;PMS_P1;PMS_P2;Temp;Humidity;BMP_temperature;BMP_pressure;BME280_temperature;BME280_humidity;BME280_pressure;Samples;Min_cycle;Max_cycle;Signal;HPM_P1;HPM_P2
2022/07/31 00:00:11;;;;;;;11.85;3.70;;;;;;;17.43;54.51;99712.19;5051853;28;20067;-67
2022/07/31 00:02:38;;;;;;;12.27;4.28;;;;;;;17.41;54.71;99705.28;5052031;28;20059;-68
2022/07/31 00:05:11;;;;;;;14.77;5.03;;;;;;;17.45;54.49;99706.19;5051751;28;20052;-68
2022/07/31 00:07:37;;;;;;;10.90;3.78;;;;;;;17.43;54.57;99711.34;5051973;28;20045;-69
2022/07/31 00:10:05;;;;;;;8.18;3.95;;;;;;;17.46;54.54;99707.81;5051974;28;20179;-69
2022/07/31 00:12:33;;;;;;;17.13;4.20;;;;;;;17.45;54.90;99700.56;5052200;28;20053;-69
2022/07/31 00:15:04;;;;;;;13.02;3.95;;;;;;;17.44;54.89;99704.56;5051942;28;20470;-68
2022/07/31 00:17:32;;;;;;;16.50;4.53;;;;;;;17.40;55.01;99703.66;5052368;28;20049;-68
2022/07/31 00:19:59;;;;;;;12.30;4.07;;;;;;;17.36;55.24;99708.41;5052054;28;20045;-68
2022/07/31 00:22:26;;;;;;;13.05;4.25;;;;;;;17.33;55.28;99700.72;5052232;28;20045;-68
2022/07/31 00:24:53;;;;;;;14.00;3.42;;;;;;;17.32;55.29;99699.09;5052151;28;20496;-69
2022/07/31 00:27:20;;;;;;;8.98;3.85;;;;;;;17.35;55.30;99703.97;5052489;28;20134;-69
2022/07/31 00:29:47;;;;;;;9.60;4.15;;;;;;;17.35;55.50;99699.16;5034564;28;20499;-69
2022/07/31 00:32:14;;;;;;;7.90;4.10;;;;;;;17.35;55.35;99698.34;5051895;28;20140;-69
2022/07/31 00:34:41;;;;;;;11.98;4.25;;;;;;;17.30;55.70;99691.03;5051877;28;20059;-69
2022/07/31 00:37:09;;;;;;;13.18;3.97;;;;;;;17.32;55.79;99696.28;5052345;28;20052;-69
2022/07/31 00:39:35;;;;;;;11.38;4.35;;;;;;;17.27;56.09;99697.41;5051932;28;20045;-69
2022/07/31 00:42:03;;;;;;;10.23;4.07;;;;;;;17.24;56.05;99692.53;5051795;28;20119;-69
2022/07/31 00:44:30;;;;;;;12.23;4.00;;;;;;;17.20;56.19;99699.28;5052022;28;20045;-69
2022/07/31 00:46:57;;;;;;;9.10;4.03;;;;;;;17.15;56.33;99691.13;5051683;28;20063;-69
2022/07/31 00:49:26;;;;;;;9.70;4.07;;;;;;;17.06;56.67;99694.19;5033935;28;20053;-69
2022/07/31 00:52:03;;;;;;;9.98;4.68;;;;;;;17.03;56.76;99692.13;5035941;28;20045;-69
2022/07/31 00:54:30;;;;;;;106.70;66.43;;;;;;;17.02;56.69;99695.31;5037437;28;20057;-68
2022/07/31 00:56:56;;;;;;;13.98;6.15;;;;;;;17.01;56.92;99690.84;5054928;28;20068;-68
2022/07/31 00:59:23;;;;;;;13.55;4.55;;;;;;;17.00;56.93;99700.47;5055338;28;20049;-68
2022/07/31 01:01:50;;;;;;;11.20;4.63;;;;;;;17.03;57.10;99699.72;5055565;28;20103;-68
2022/07/31 01:04:18;;;;;;;9.75;4.20;;;;;;;17.02;57.29;99693.28;5054877;28;20126;-68
2022/07/31 01:06:46;;;;;;;24.15;4.65;;;;;;;17.00;57.51;99700.47;5055045;28;20049;-68
2022/07/31 01:09:14;;;;;;;13.23;4.00;;;;;;;16.94;57.39;99693.53;5054710;28;20120;-68
2022/07/31 01:11:54;;;;;;;11.70;4.50;;;;;;;16.96;57.95;99700.41;5054952;28;20144;-68
2022/07/31 01:14:25;;;;;;;16.02;4.93;;;;;;;16.94;57.75;99704.78;5054674;28;20052;-68
2022/07/31 01:16:54;;;;;;;11.93;5.95;;;;;;;16.94;57.42;99699.16;5054671;28;20048;-68
2022/07/31 01:19:27;;;;;;;12.45;4.50;;;;;;;16.93;57.54;99708.78;5055162;28;20064;-67
2022/07/31 01:22:29;;;;;;;12.85;4.72;;;;;;;16.88;57.78;99704.28;5054352;28;20049;-67
2022/07/31 01:25:04;;;;;;;10.43;4.50;;;;;;;16.88;58.00;99709.06;5054698;28;20118;-67
2022/07/31 01:27:51;;;;;;;10.13;4.05;;;;;;;16.84;58.05;99705.38;5054970;28;20091;-67
2022/07/31 01:30:22;;;;;;;11.88;4.90;;;;;;;16.80;57.75;99702.50;5054670;28;20053;-67
2022/07/31 01:33:00;;;;;;;17.40;4.65;;;;;;;16.80;58.33;99704.47;5054633;28;20053;-68
2022/07/31 01:35:31;;;;;;;12.23;4.85;;;;;;;16.75;58.45;99699.16;5054549;28;20500;-77
2022/07/31 01:38:23;;;;;;;13.73;4.97;;;;;;;16.76;58.56;99707.22;5056634;28;20056;-76
2022/07/31 01:40:58;;;;;;;12.70;5.30;;;;;;;16.78;58.88;99695.63;5074870;28;20052;-76
2022/07/31 01:43:34;;;;;;;11.85;4.70;;;;;;;16.80;58.66;99699.69;5048114;28;20060;-76
2022/07/31 01:46:03;;;;;;;13.25;4.25;;;;;;;16.81;58.80;99695.66;5054255;28;20053;-76
2022/07/31 01:48:35;;;;;;;10.27;4.90;;;;;;;16.87;58.60;99697.00;5054254;28;20127;-76
2022/07/31 01:51:05;;;;;;;11.73;4.05;;;;;;;16.86;58.53;99697.38;5054056;28;20523;-78
2022/07/31 01:53:34;;;;;;;11.35;4.65;;;;;;;16.88;58.60;99692.22;5053904;28;20072;-76
2022/07/31 01:56:02;;;;;;;9.55;4.15;;;;;;;16.85;58.63;99693.78;5054306;28;20048;-76
2022/07/31 01:58:35;;;;;;;15.25;5.35;;;;;;;16.85;58.96;99698.56;5054176;28;20076;-76
2022/07/31 02:01:05;;;;;;;11.00;4.80;;;;;;;16.83;59.03;99698.13;5054597;28;20140;-78
2022/07/31 02:03:32;;;;;;;;;;;;;;;16.72;58.96;99699.91;5053962;28;20053;-76
2022/07/31 02:06:13;;;;;;;8.90;4.65;;;;;;;16.74;59.20;99705.94;5054602;28;20019;-77
2022/07/31 02:08:41;;;;;;;;;;;;;;;16.68;59.13;99701.81;5053971;28;20140;-77
2022/07/31 02:11:08;;;;;;;14.32;4.85;;;;;;;16.71;58.77;99699.09;5054228;28;19932;-77
2022/07/31 02:13:36;;;;;;;13.40;5.20;;;;;;;16.77;58.94;99702.41;5053802;28;20049;-76
2022/07/31 02:16:04;;;;;;;15.70;5.32;;;;;;;16.75;59.01;99699.97;5036925;28;20513;-76
2022/07/31 02:18:33;;;;;;;16.42;5.25;;;;;;;16.75;58.93;99705.59;5033729;28;20079;-76
2022/07/31 02:21:00;;;;;;;9.70;4.28;;;;;;;16.76;58.89;99701.63;5033971;28;20477;-77
2022/07/31 02:23:27;;;;;;;11.43;4.95;;;;;;;16.78;58.95;99704.06;5033680;28;20110;-77
2022/07/31 02:25:54;;;;;;;17.08;4.40;;;;;;;16.82;58.99;99700.13;5032533;28;20057;-76
2022/07/31 02:28:23;;;;;;;16.52;5.63;;;;;;;16.84;59.37;99692.13;5025148;28;20048;-77
2022/07/31 02:30:50;;;;;;;11.45;4.97;;;;;;;16.88;59.14;99695.84;5033959;28;20083;-76
2022/07/31 02:33:24;;;;;;;14.65;4.65;;;;;;;16.93;58.88;99695.53;5034092;28;20049;-76
2022/07/31 02:35:54;;;;;;;10.88;5.25;;;;;;;16.95;58.81;99692.34;5033670;28;20052;-76
2022/07/31 02:38:25;;;;;;;17.98;4.90;;;;;;;16.96;58.77;99700.41;5033074;28;20124;-76
2022/07/31 02:40:58;;;;;;;11.30;4.55;;;;;;;16.99;58.96;99696.84;5033401;28;20057;-76
2022/07/31 02:43:27;;;;;;;12.15;4.95;;;;;;;17.00;58.89;99703.28;5050172;28;20072;-76
2022/07/31 02:45:56;;;;;;;11.27;4.85;;;;;;;17.01;58.73;99697.28;5053318;28;20044;-76
2022/07/31 02:48:24;;;;;;;13.85;6.93;;;;;;;17.00;58.76;99694.84;5035231;28;20053;-76
2022/07/31 02:50:51;;;;;;;14.35;4.97;;;;;;;17.02;58.64;99695.31;5053460;28;20083;-77
2022/07/31 02:53:19;;;;;;;16.67;5.97;;;;;;;17.06;58.98;99701.81;5053048;28;20049;-77
2022/07/31 02:55:48;;;;;;;19.02;4.68;;;;;;;17.07;58.95;99694.97;5053511;28;20056;-76
2022/07/31 02:58:15;;;;;;;16.48;4.22;;;;;;;17.11;58.84;99693.06;5052965;28;20477;-77
2022/07/31 03:00:42;;;;;;;14.65;5.57;;;;;;;17.14;58.62;99700.75;5053341;28;20049;-76
2022/07/31 03:03:09;;;;;;;13.55;5.30;;;;;;;17.13;58.78;99699.94;5052860;28;20061;-76
2022/07/31 03:05:36;;;;;;;14.20;5.35;;;;;;;17.15;58.45;99693.94;5052884;28;20049;-76
2022/07/31 03:08:03;;;;;;;14.98;5.25;;;;;;;17.19;58.28;99694.81;5052869;28;20053;-68
2022/07/31 03:10:30;;;;;;;15.55;5.85;;;;;;;17.26;58.19;99697.78;5052537;28;20115;-68
2022/07/31 03:12:57;;;;;;;17.08;6.40;;;;;;;17.32;57.89;99699.09;5052636;28;20060;-68
2022/07/31 03:15:26;;;;;;;15.27;4.93;;;;;;;17.38;57.68;99711.66;5063805;28;20492;-69
2022/07/31 03:17:53;;;;;;;37.92;6.13;;;;;;;17.38;57.32;99700.41;5054571;28;20055;-69
2022/07/31 03:20:22;;;;;;;9.75;4.82;;;;;;;17.40;57.52;99709.28;5064211;28;20411;-68
2022/07/31 03:22:50;;;;;;;17.70;5.95;;;;;;;17.39;57.32;99702.84;5072613;28;20048;-69
2022/07/31 03:25:17;;;;;;;17.10;5.43;;;;;;;17.45;57.41;99703.38;5072634;28;20558;-69
2022/07/31 03:27:49;;;;;;;16.30;5.45;;;;;;;17.52;57.02;99700.69;5072300;28;20040;-69
2022/07/31 03:30:24;;;;;;;21.25;6.05;;;;;;;17.60;56.68;99702.44;5072666;28;20044;-69
2022/07/31 03:32:52;;;;;;;15.60;5.43;;;;;;;17.76;56.04;99705.94;5072552;28;20052;-69
2022/07/31 03:35:19;;;;;;;17.08;4.82;;;;;;;18.02;55.53;99703.97;5072313;28;20507;-69
2022/07/31 03:37:46;;;;;;;19.25;6.07;;;;;;;18.25;55.11;99706.72;5072377;28;20048;-69
2022/07/31 03:40:13;;;;;;;11.38;5.38;;;;;;;18.40;54.67;99707.78;5072327;28;20040;-69
2022/07/31 03:42:41;;;;;;;13.13;4.93;;;;;;;18.52;54.09;99699.91;5072767;28;20478;-69
2022/07/31 03:45:10;;;;;;;15.52;5.65;;;;;;;18.64;53.61;99710.94;5072420;28;20048;-69
2022/07/31 03:47:37;;;;;;;17.45;5.05;;;;;;;18.73;53.23;99714.28;5063405;28;20055;-69
2022/07/31 03:50:05;;;;;;;17.42;5.78;;;;;;;18.75;52.98;99699.81;5052303;28;20044;-68
2022/07/31 03:52:33;;;;;;;20.70;5.22;;;;;;;18.84;52.51;99706.78;5052445;28;20569;-68
2022/07/31 03:55:01;;;;;;;10.30;4.63;;;;;;;18.88;52.17;99713.28;5052128;28;20040;-67
2022/07/31 03:57:31;;;;;;;13.27;5.60;;;;;;;18.94;51.98;99714.56;5034013;28;20060;-67
2022/07/31 04:00:01;;;;;;;17.80;6.03;;;;;;;18.96;51.68;99706.53;5052309;28;20090;-67
2022/07/31 04:02:29;;;;;;;16.38;5.50;;;;;;;19.00;51.38;99715.84;5052733;28;20045;-78
2022/07/31 04:04:58;;;;;;;11.60;5.85;;;;;;;19.02;51.25;99712.63;5060402;28;20052;-76
2022/07/31 04:07:25;;;;;;;13.23;5.10;;;;;;;19.08;51.10;99722.38;5072119;28;20559;-76
2022/07/31 04:09:52;;;;;;;15.73;6.65;;;;;;;19.13;50.89;99714.38;5072382;28;20403;-76
2022/07/31 04:12:19;;;;;;;9.32;5.05;;;;;;;19.22;50.60;99716.91;5071965;28;20507;-76
2022/07/31 04:14:46;;;;;;;11.00;5.25;;;;;;;19.29;50.52;99711.38;5071603;28;20045;-76
2022/07/31 04:17:13;;;;;;;14.90;5.25;;;;;;;19.35;50.48;99716.28;5072288;28;20048;-76
2022/07/31 04:19:40;;;;;;;12.80;4.60;;;;;;;19.42;50.29;99707.88;5072151;28;20049;-76
2022/07/31 04:22:09;;;;;;;20.27;5.22;;;;;;;19.48;49.97;99709.16;5071871;28;20079;-77
2022/07/31 04:24:36;;;;;;;11.25;4.35;;;;;;;19.57;50.12;99712.47;5071927;28;20529;-76
2022/07/31 04:27:03;;;;;;;16.85;4.93;;;;;;;19.66;49.74;99715.78;5072091;28;20059;-76
2022/07/31 04:29:37;;;;;;;13.68;4.88;;;;;;;19.74;49.52;99717.47;5075790;28;20047;-76
2022/07/31 04:32:04;;;;;;;13.45;4.57;;;;;;;19.85;49.36;99709.91;5057726;28;20051;-76
2022/07/31 04:34:32;;;;;;;15.57;4.63;;;;;;;19.91;49.08;99716.81;5075751;28;20041;-77
2022/07/31 04:36:59;;;;;;;17.85;5.05;;;;;;;20.04;48.94;99713.69;5075853;28;20055;-77
2022/07/31 04:39:26;;;;;;;8.35;4.28;;;;;;;20.13;48.40;99717.03;5075380;28;20044;-76
2022/07/31 04:41:54;;;;;;;12.25;4.72;;;;;;;20.19;47.93;99712.63;5074870;28;20052;-76
2022/07/31 04:44:22;;;;;;;8.27;4.10;;;;;;;20.25;47.81;99705.41;5055204;28;20098;-77
2022/07/31 04:46:49;;;;;;;7.60;3.90;;;;;;;20.31;47.54;99709.50;5055570;28;20068;-77
2022/07/31 04:49:16;;;;;;;12.10;3.50;;;;;;;20.38;47.28;99701.03;5055162;28;20095;-77
2022/07/31 04:51:43;;;;;;;13.25;4.38;;;;;;;20.41;46.88;99705.91;5055373;28;20400;-77
2022/07/31 04:54:10;;;;;;;14.13;3.22;;;;;;;20.48;46.74;99697.47;5055260;28;20045;-77
2022/07/31 04:56:43;;;;;;;8.88;4.32;;;;;;;20.58;46.29;99706.03;5055603;28;20056;-77
2022/07/31 04:59:14;;;;;;;11.60;3.67;;;;;;;20.70;45.95;99704.88;5055258;28;20043;-76
2022/07/31 05:01:42;;;;;;;11.25;3.22;;;;;;;20.79;45.45;99708.16;5055062;28;20056;-77
2022/07/31 05:04:09;;;;;;;11.00;3.85;;;;;;;20.88;45.32;99705.78;5055129;28;20110;-76
2022/07/31 05:06:45;;;;;;;13.52;2.95;;;;;;;20.99;44.86;99701.00;5055336;28;20049;-76
2022/07/31 05:09:17;;;;;;;9.85;3.00;;;;;;;21.04;44.51;99694.94;5055317;28;20036;-75
2022/07/31 05:11:50;;;;;;;7.60;3.13;;;;;;;21.13;44.04;99696.19;5054087;28;20416;-70
2022/07/31 05:14:19;;;;;;;5.18;2.30;;;;;;;21.23;43.53;99691.78;5054838;28;20044;-69
2022/07/31 05:16:47;;;;;;;10.90;2.80;;;;;;;;;;5055162;28;20060;-69
2022/07/31 05:19:14;;;;;;;7.97;2.78;;;;;;;21.59;42.93;99691.44;5055209;28;20136;-69
2022/07/31 05:21:44;;;;;;;9.52;2.55;;;;;;;21.85;42.35;99690.31;5055099;28;20053;-75
2022/07/31 05:24:20;;;;;;;8.93;2.60;;;;;;;22.00;42.08;99686.25;5055218;28;20049;-76
2022/07/31 05:27:03;;;;;;;8.35;2.40;;;;;;;22.18;41.66;99684.22;5054759;28;20088;-75
2022/07/31 05:29:31;;;;;;;4.97;1.92;;;;;;;22.40;40.99;99676.44;5055069;28;20041;-77
2022/07/31 05:31:58;;;;;;;4.35;2.40;;;;;;;22.62;40.48;99683.72;5054672;28;20075;-68
2022/07/31 05:34:35;;;;;;;4.63;2.05;;;;;;;22.87;39.98;99679.59;5054676;28;20060;-68
2022/07/31 05:37:02;;;;;;;4.60;1.98;;;;;;;23.05;39.40;99671.81;5054748;28;20549;-68
2022/07/31 05:39:30;;;;;;;4.40;2.42;;;;;;;23.29;38.50;99665.22;5053035;28;20048;-69
2022/07/31 05:41:57;;;;;;;4.13;1.65;;;;;;;23.59;37.31;99670.28;5056047;28;20534;-69
2022/07/31 05:44:23;;;;;;;5.60;1.90;;;;;;;23.82;37.02;99664.00;5074478;28;20053;-69
2022/07/31 05:46:51;;;;;;;8.63;1.85;;;;;;;24.11;36.48;99656.88;5074391;28;20083;-68
2022/07/31 05:49:18;;;;;;;4.00;2.05;;;;;;;24.39;36.06;99662.31;5074343;28;20127;-69
2022/07/31 05:51:52;;;;;;;4.10;1.98;;;;;;;24.65;35.72;99662.44;5074856;28;20465;-77
2022/07/31 05:54:21;;;;;;;2.42;1.42;;;;;;;24.95;35.21;99661.66;5063521;28;20041;-77
2022/07/31 05:56:47;;;;;;;4.43;1.70;;;;;;;25.32;34.36;99667.28;5054236;28;20055;-77
2022/07/31 05:59:14;;;;;;;3.50;1.00;;;;;;;25.79;32.26;99671.88;5054115;28;20071;-76
2022/07/31 06:01:41;;;;;;;2.22;0.90;;;;;;;26.17;31.09;99676.13;5053815;28;20064;-77
2022/07/31 06:04:08;;;;;;;1.63;0.75;;;;;;;25.87;29.79;99679.03;5053631;28;20059;-77
2022/07/31 06:06:35;;;;;;;1.80;0.90;;;;;;;25.29;30.15;99665.28;5054118;28;20072;-77
2022/07/31 06:09:02;;;;;;;3.47;1.00;;;;;;;24.81;30.78;99670.38;5053737;28;20060;-77
2022/07/31 06:11:31;;;;;;;1.17;0.70;;;;;;;24.37;32.03;99673.28;5054488;28;20059;-76
2022/07/31 06:13:57;;;;;;;1.52;0.77;;;;;;;24.04;32.88;99674.03;5054028;28;20048;-76
2022/07/31 06:16:25;;;;;;;4.70;1.00;;;;;;;23.77;33.39;99670.16;5073561;28;20048;-77
2022/07/31 06:18:51;;;;;;;1.33;0.70;;;;;;;23.53;33.84;99674.00;5073905;28;20741;-77
2022/07/31 06:21:18;;;;;;;4.38;1.50;;;;;;;23.30;34.42;99671.72;5073671;28;20048;-76
2022/07/31 06:23:46;;;;;;;4.00;1.35;;;;;;;23.16;35.44;99672.56;5073753;28;20040;-76
2022/07/31 06:26:13;;;;;;;6.85;1.85;;;;;;;23.34;35.02;99676.16;5073681;28;20131;-76
2022/07/31 06:28:40;;;;;;;4.00;1.38;;;;;;;24.89;31.68;99674.75;5073660;28;20063;-76
2022/07/31 06:31:19;;;;;;;1.10;0.70;;;;;;;26.67;27.81;99671.13;5073421;28;20063;-76
2022/07/31 06:33:47;;;;;;;1.33;0.70;;;;;;;26.62;27.08;99680.19;5073428;28;20392;-76
2022/07/31 06:36:16;;;;;;;2.47;1.20;;;;;;;26.29;27.56;99677.56;5073572;28;20076;-76
2022/07/31 06:38:44;;;;;;;3.05;1.05;;;;;;;26.55;27.33;99673.78;5073438;28;20150;-76
2022/07/31 06:41:43;;;;;;;4.25;0.82;;;;;;;26.43;26.73;99666.69;5055899;28;20140;-76
2022/07/31 06:43:58;;;;;;;4.20;1.13;;;;;;;27.26;25.61;99661.78;5067252;28;20047;-76
2022/07/31 06:46:25;;;;;;;1.90;0.98;;;;;;;27.65;24.88;99661.69;5053219;28;20135;-68
2022/07/31 06:48:52;;;;;;;8.38;1.17;;;;;;;27.43;24.83;99657.69;5035419;28;20135;-69
2022/07/31 06:51:20;;;;;;;4.25;1.15;;;;;;;27.02;25.25;99661.03;5053094;28;20052;-69
2022/07/31 06:54:01;;;;;;;2.70;1.10;;;;;;;27.04;25.36;99660.59;5053377;28;20049;-76
2022/07/31 06:56:30;;;;;;;3.38;1.10;;;;;;;27.41;24.94;99652.41;5053160;28;20423;-76
2022/07/31 06:58:57;;;;;;;4.60;1.23;;;;;;;28.34;24.27;99653.38;5072340;28;20419;-76
2022/07/31 07:01:24;;;;;;;3.28;1.08;;;;;;;32.75;19.95;99651.53;5072974;28;20131;-77
2022/07/31 07:03:51;;;;;;;2.63;1.00;;;;;;;35.86;16.48;99651.13;5067499;28;20141;-76
2022/07/31 07:06:18;;;;;;;6.68;1.25;;;;;;;35.33;16.99;99649.63;5052691;28;20392;-76
2022/07/31 07:08:45;;;;;;;3.30;0.95;;;;;;;33.47;18.09;99656.47;5053315;28;20053;-69
2022/07/31 07:11:13;;;;;;;2.25;1.10;;;;;;;32.63;19.26;99652.50;5053087;28;20041;-69
2022/07/31 07:13:40;;;;;;;3.03;1.10;;;;;;;35.37;16.46;99661.84;5052501;28;20056;-69
2022/07/31 07:16:13;;;;;;;1.65;1.00;;;;;;;38.70;14.15;99654.44;5052764;28;20496;-69
2022/07/31 07:18:40;;;;;;;1.77;0.95;;;;;;;42.20;11.25;99652.53;5052921;28;20052;-69
2022/07/31 07:21:06;;;;;;;3.13;1.20;;;;;;;43.91;9.91;99650.28;5052823;28;20474;-70
2022/07/31 07:23:34;;;;;;;2.70;1.58;;;;;;;46.04;8.99;99657.16;5052832;28;20048;-70
2022/07/31 07:26:01;;;;;;;5.07;0.90;;;;;;;46.86;8.49;99661.34;5052821;28;20057;-69
2022/07/31 07:28:29;;;;;;;2.83;1.10;;;;;;;48.71;7.17;99654.84;5052469;28;20060;-69
2022/07/31 07:30:57;;;;;;;3.65;1.25;;;;;;;50.13;6.04;99657.75;5052649;28;20045;-70
2022/07/31 07:33:24;;;;;;;5.97;1.15;;;;;;;51.25;6.08;99652.03;5052561;28;20132;-68
2022/07/31 07:36:11;;;;;;;6.05;1.17;;;;;;;52.16;5.50;99656.06;5052924;28;20137;-68
2022/07/31 07:38:53;;;;;;;4.97;1.40;;;;;;;53.17;4.31;99649.19;5036425;28;20098;-69
2022/07/31 07:41:25;;;;;;;4.70;1.48;;;;;;;53.39;4.46;99650.94;5052277;28;20053;-68
2022/07/31 07:43:52;;;;;;;3.50;1.33;;;;;;;53.60;3.81;99642.13;5052274;28;20136;-68
2022/07/31 07:46:22;;;;;;;2.38;1.38;;;;;;;54.41;3.75;99643.69;5052803;28;20052;-68
2022/07/31 07:48:50;;;;;;;13.15;3.03;;;;;;;54.97;3.56;99643.94;5072113;28;20049;-68
2022/07/31 07:51:18;;;;;;;8.25;1.70;;;;;;;56.06;3.39;99634.19;5072406;28;20053;-68
2022/07/31 07:53:45;;;;;;;6.93;1.40;;;;;;;51.57;4.70;99634.00;5072119;28;20067;-68
2022/07/31 07:56:13;;;;;;;2.63;1.00;;;;;;;50.13;5.36;99642.94;5072425;28;20060;-68
2022/07/31 07:58:39;;;;;;;;;;;;;;;45.43;7.95;99631.41;5072512;28;20507;-68
2022/07/31 08:01:06;;;;;;;13.52;7.13;;;;;;;46.47;7.28;99629.25;5072343;28;19924;-68
2022/07/31 08:03:33;;;;;;;2.60;1.50;;;;;;;47.48;7.05;99629.38;5074756;28;20049;-69
2022/07/31 08:06:16;;;;;;;1.63;1.05;;;;;;;50.06;5.37;99623.84;5076394;28;20063;-68
2022/07/31 08:08:43;;;;;;;3.22;1.33;;;;;;;50.73;5.33;99627.56;5076402;28;20052;-69
2022/07/31 08:11:09;;;;;;;2.60;1.48;;;;;;;52.37;4.68;99629.56;5076277;28;20066;-68
2022/07/31 08:13:44;;;;;;;7.72;1.60;;;;;;;53.97;3.97;99631.50;5076114;28;20530;-69
2022/07/31 08:16:16;;;;;;;6.97;1.80;;;;;;;54.91;3.61;99632.38;5076496;28;20118;-68
2022/07/31 08:18:45;;;;;;;3.50;1.63;;;;;;;56.05;3.50;99629.66;5063904;28;20060;-69
2022/07/31 08:21:12;;;;;;;4.28;1.25;;;;;;;56.69;2.84;99630.78;5056463;28;20136;-68
2022/07/31 08:23:39;;;;;;;8.75;2.00;;;;;;;57.12;2.51;99634.94;5057172;28;20072;-68
2022/07/31 08:26:16;;;;;;;3.35;1.60;;;;;;;57.23;2.60;99634.13;5055772;28;20083;-68
2022/07/31 08:28:44;;;;;;;7.40;1.50;;;;;;;58.32;2.29;99632.22;5055773;28;20131;-68
2022/07/31 08:31:18;;;;;;;3.17;1.70;;;;;;;58.94;1.62;99631.84;5035588;28;20412;-69
2022/07/31 08:33:46;;;;;;;5.07;1.80;;;;;;;59.20;1.55;99637.00;5035978;28;20094;-68
2022/07/31 08:36:13;;;;;;;6.60;2.08;;;;;;;59.52;2.08;99631.88;5048376;28;20056;-67
2022/07/31 08:38:40;;;;;;;6.57;2.03;;;;;;;60.22;1.07;99629.34;5075741;28;20547;-67
2022/07/31 08:41:07;;;;;;;5.07;2.10;;;;;;;60.80;0.89;99625.28;5076238;28;20044;-68
2022/07/31 08:43:34;;;;;;;5.90;2.45;;;;;;;61.01;1.15;99634.53;5075114;28;20543;-67
2022/07/31 08:46:21;;;;;;;3.40;2.30;;;;;;;60.69;0.83;99621.06;5074482;28;20048;-68
2022/07/31 08:48:53;;;;;;;4.25;2.35;;;;;;;60.21;0.83;99615.78;5038031;28;20606;-68
2022/07/31 08:51:22;;;;;;;2.80;2.20;;;;;;;60.29;0.79;99610.16;5055696;28;20095;-69
2022/07/31 08:53:50;;;;;;;3.00;2.10;;;;;;;60.24;0.79;99614.41;5055292;28;20055;-77
2022/07/31 08:56:19;;;;;;;3.45;2.80;;;;;;;60.19;0.32;99608.91;5055431;28;20049;-77
2022/07/31 08:58:46;;;;;;;2.88;2.45;;;;;;;60.30;0.55;99608.69;5055049;28;20135;-77
2022/07/31 09:01:13;;;;;;;8.02;2.20;;;;;;;60.48;0.27;99603.53;5055380;28;20415;-77
2022/07/31 09:03:41;;;;;;;4.38;2.50;;;;;;;60.22;0.63;99604.53;5055018;28;20053;-77
2022/07/31 09:06:08;;;;;;;2.95;2.28;;;;;;;60.21;0.55;99597.75;5055658;28;20083;-77
2022/07/31 09:08:36;;;;;;;11.63;2.35;;;;;;;59.68;1.25;99603.44;5055334;28;20419;-77
2022/07/31 09:11:08;;;;;;;4.63;2.30;;;;;;;60.06;0.87;99596.28;5055049;28;20056;-77
2022/07/31 09:13:35;;;;;;;5.30;2.08;;;;;;;60.50;0.22;99596.81;5054658;28;20446;-76
2022/07/31 09:16:03;;;;;;;6.78;2.35;;;;;;;60.65;0.50;99593.78;5055089;28;20086;-75
2022/07/31 09:18:31;;;;;;;2.88;2.20;;;;;;;60.46;0.17;99596.66;5054408;28;20076;-77
2022/07/31 09:21:01;;;;;;;7.50;2.42;;;;;;;60.66;0.42;99592.34;5055090;28;20512;-77
2022/07/31 09:23:29;;;;;;;2.60;2.40;;;;;;;60.73;0.43;99588.16;5054866;28;20140;-77
2022/07/31 09:26:06;;;;;;;13.82;2.83;;;;;;;61.37;0.64;99590.94;5055234;28;20053;-77
2022/07/31 09:28:41;;;;;;;11.60;2.90;;;;;;;61.88;0.37;99587.00;5037413;28;20049;-77
2022/07/31 09:31:10;;;;;;;4.88;2.70;;;;;;;61.48;0.56;99598.94;5054796;28;20053;-76
2022/07/31 09:33:38;;;;;;;3.55;2.97;;;;;;;61.25;0.40;99592.66;5054748;28;20044;-77
2022/07/31 09:36:11;;;;;;;4.30;2.58;;;;;;;60.38;0.69;99584.22;5055163;28;20056;-69
2022/07/31 09:38:41;;;;;;;4.07;2.35;;;;;;;60.31;0.36;99591.44;5054407;28;20049;-68
2022/07/31 09:41:19;;;;;;;5.22;2.10;;;;;;;59.67;1.25;99574.06;5055166;28;20049;-68
2022/07/31 09:44:06;;;;;;;2.85;1.60;;;;;;;52.57;3.75;99562.78;5054547;28;20430;-68
2022/07/31 09:46:46;;;;;;;3.80;1.20;;;;;;;47.72;5.99;99573.63;5054535;28;20152;-68
2022/07/31 09:49:14;;;;;;;10.85;1.30;;;;;;;44.21;7.59;99573.69;5055338;28;20053;-69
2022/07/31 09:51:48;;;;;;;2.78;1.20;;;;;;;41.87;8.83;99568.06;5054412;28;20447;-69
2022/07/31 09:54:27;;;;;;;3.88;1.20;;;;;;;39.92;10.08;99563.06;5053799;28;20403;-69
2022/07/31 09:56:54;;;;;;;6.00;1.42;;;;;;;38.25;11.69;99566.19;5054150;28;20053;-68
2022/07/31 09:59:22;;;;;;;3.70;1.40;;;;;;;37.09;12.25;99573.19;5054163;28;20053;-68
2022/07/31 10:01:52;;;;;;;2.80;1.17;;;;;;;36.02;12.48;99577.38;5053753;28;20044;-68
2022/07/31 10:04:21;;;;;;;3.92;1.05;;;;;;;34.79;13.32;99569.97;5053691;28;20060;-68
2022/07/31 10:06:50;;;;;;;2.60;1.02;;;;;;;34.19;13.96;99581.84;5057111;28;20503;-68
2022/07/31 10:09:19;;;;;;;1.52;1.00;;;;;;;33.81;13.95;99572.28;5073979;28;20087;-69
2022/07/31 10:11:48;;;;;;;2.55;1.10;;;;;;;33.29;14.36;99576.50;5073562;28;20158;-69
2022/07/31 10:14:25;;;;;;;3.55;1.27;;;;;;;32.88;14.42;99565.72;5073930;28;20088;-69
2022/07/31 10:16:56;;;;;;;4.30;1.20;;;;;;;32.41;15.20;99563.34;5073911;28;20076;-69
2022/07/31 10:19:26;;;;;;;3.80;1.13;;;;;;;32.02;14.98;99566.31;5038068;28;20060;-67
2022/07/31 10:22:00;;;;;;;2.42;1.30;;;;;;;31.76;15.54;99568.63;5033892;28;20373;-67
2022/07/31 10:24:31;;;;;;;7.13;0.98;;;;;;;31.61;15.98;99564.75;5026006;28;20045;-68
2022/07/31 10:26:59;;;;;;;3.33;1.13;;;;;;;31.57;15.85;99561.22;5032358;28;20067;-68
2022/07/31 10:29:37;;;;;;;2.33;1.30;;;;;;;31.38;16.81;99565.31;5033639;28;20136;-68
2022/07/31 10:32:06;;;;;;;1.83;1.08;;;;;;;31.14;16.43;99558.47;5033579;28;20149;-68
2022/07/31 10:34:34;;;;;;;2.25;1.23;;;;;;;30.87;16.99;99558.31;5033815;28;20152;-68
2022/07/31 10:37:10;;;;;;;1.98;0.90;;;;;;;30.75;17.57;99562.03;5033371;28;20140;-67
2022/07/31 10:39:52;;;;;;;1.80;1.10;;;;;;;30.61;17.77;99562.56;5033592;28;20408;-68
2022/07/31 10:42:34;;;;;;;2.25;1.35;;;;;;;30.37;17.57;99564.28;5033696;28;20056;-68
2022/07/31 10:45:12;;;;;;;4.72;1.17;;;;;;;30.26;18.21;99558.94;5051634;28;20122;-69
2022/07/31 10:47:39;;;;;;;5.20;1.20;;;;;;;30.23;18.05;99561.94;5053365;28;20061;-68
2022/07/31 10:50:22;;;;;;;2.22;1.10;;;;;;;30.06;18.16;99555.53;5053238;28;20095;-68
2022/07/31 10:52:50;;;;;;;2.13;0.93;;;;;;;29.97;18.14;99553.38;5052991;28;20522;-69
2022/07/31 10:55:25;;;;;;;3.67;1.30;;;;;;;30.12;18.00;99554.50;5053197;28;20057;-69
2022/07/31 10:57:53;;;;;;;2.40;1.00;;;;;;;29.96;18.06;99551.75;5070408;28;20048;-68
2022/07/31 11:00:25;;;;;;;2.30;1.05;;;;;;;29.80;18.15;99549.06;5073114;28;20052;-68
2022/07/31 11:02:55;;;;;;;6.30;1.00;;;;;;;29.69;18.30;99542.88;5072606;28;20400;-68
2022/07/31 11:05:23;;;;;;;1.98;1.02;;;;;;;29.63;18.13;99544.72;5072941;28;20079;-68
2022/07/31 11:08:02;;;;;;;7.50;1.40;;;;;;;29.46;18.79;99531.75;5055385;28;20048;-69
2022/07/31 11:10:30;;;;;;;2.65;1.17;;;;;;;29.25;19.19;99541.06;5072883;28;20091;-68
2022/07/31 11:13:06;;;;;;;3.20;1.20;;;;;;;29.21;19.05;99540.38;5073226;28;20045;-68
2022/07/31 11:15:36;;;;;;;4.88;1.25;;;;;;;29.17;19.05;99533.97;5073149;28;20076;-67
2022/07/31 11:18:17;;;;;;;4.38;1.58;;;;;;;29.09;19.11;99535.44;5065777;28;20045;-68
2022/07/31 11:21:02;;;;;;;1.92;1.10;;;;;;;29.07;19.01;99526.50;5052938;28;20040;-67
2022/07/31 11:23:48;;;;;;;2.80;1.15;;;;;;;29.12;19.21;99540.25;5052604;28;20455;-68
2022/07/31 11:26:31;;;;;;;1.92;1.13;;;;;;;29.11;19.10;99535.81;5045803;28;20052;-68
2022/07/31 11:29:10;;;;;;;7.20;1.10;;;;;;;29.11;18.85;99530.06;5052642;28;20053;-68
2022/07/31 11:32:00;;;;;;;93.15;44.33;;;;;;;29.11;18.93;99532.94;5052635;28;20073;-68
2022/07/31 11:34:27;;;;;;;8.57;3.38;;;;;;;29.02;19.18;99540.56;5052721;28;20048;-68
2022/07/31 11:36:54;;;;;;;2.15;1.20;;;;;;;28.88;19.25;99535.28;5051567;28;20057;-68
2022/07/31 11:39:22;;;;;;;2.38;1.10;;;;;;;28.68;18.96;99529.75;5052342;28;20044;-67
2022/07/31 11:42:03;;;;;;;2.35;1.23;;;;;;;28.73;19.07;99532.06;5052443;28;20055;-68
2022/07/31 11:44:33;;;;;;;3.22;1.00;;;;;;;28.79;18.95;99535.97;5052365;28;20048;-68
2022/07/31 11:47:00;;;;;;;2.30;1.10;;;;;;;28.67;19.12;99530.19;5052208;28;20056;-68